createdAt,value
2023-04-04T00:00:53.786Z,66.85
2023-04-04T00:03:21.832Z,65.54
2023-04-04T00:05:51.688Z,65.51
2023-04-04T00:08:19.870Z,65.67
2023-04-04T00:10:47.780Z,65.44
2023-04-04T00:13:17.289Z,66.67
2023-04-04T00:15:45.316Z,66.17
2023-04-04T00:18:13.276Z,66.70
2023-04-04T00:20:41.380Z,66.47
2023-04-04T00:23:11.134Z,66.13
2023-04-04T00:25:39.385Z,66.66
2023-04-04T00:28:07.379Z,66.38
2023-04-04T00:30:37.343Z,67.03
2023-04-04T00:33:06.537Z,66.17
2023-04-04T00:35:34.668Z,66.81
2023-04-04T00:38:02.634Z,67.08
2023-04-04T00:40:30.761Z,66.39
2023-04-04T00:43:00.489Z,67.11
2023-04-04T00:45:28.688Z,66.44
2023-04-04T00:47:59.813Z,66.95
2023-04-04T00:50:27.912Z,66.19
2023-04-04T00:52:56.378Z,66.72
2023-04-04T00:55:24.488Z,67.26
2023-04-04T00:57:52.919Z,66.28
2023-04-04T01:00:21.289Z,67.28
2023-04-04T01:02:49.294Z,66.08
2023-04-04T01:05:18.884Z,66.40
2023-04-04T01:07:47.020Z,66.93
2023-04-04T01:10:15.066Z,66.81
2023-04-04T01:12:43.430Z,67.21
2023-04-04T01:15:12.467Z,67.10
2023-04-04T01:17:42.015Z,66.97
2023-04-04T01:20:14.155Z,67.58
2023-04-04T01:22:52.115Z,66.83
2023-04-04T01:25:27.209Z,67.27
2023-04-04T01:27:58.280Z,67.32
2023-04-04T01:30:30.145Z,67.71
2023-04-04T01:33:02.408Z,68.22
2023-04-04T01:35:36.840Z,67.73
2023-04-04T01:38:16.347Z,67.25
2023-04-04T01:40:50.553Z,67.04
2023-04-04T01:43:19.758Z,67.32
2023-04-04T01:45:47.725Z,67.79
2023-04-04T01:48:16.768Z,67.63
2023-04-04T01:50:48.249Z,68.08
2023-04-04T01:53:17.051Z,68.15
2023-04-04T01:55:46.678Z,67.71
2023-04-04T01:58:17.132Z,67.57
2023-04-04T02:00:45.066Z,67.62
2023-04-04T02:03:13.108Z,67.61
2023-04-04T02:05:41.066Z,67.78
2023-04-04T02:08:10.730Z,67.16
2023-04-04T02:10:49.024Z,68.14
2023-04-04T02:13:17.011Z,68.83
2023-04-04T02:15:45.739Z,67.78
2023-04-04T02:18:14.380Z,68.47
2023-04-04T02:20:42.400Z,67.86
2023-04-04T02:23:10.420Z,67.50
2023-04-04T02:25:38.367Z,68.75
2023-04-04T02:28:07.833Z,68.79
2023-04-04T02:30:35.752Z,68.54
2023-04-04T02:33:04.484Z,68.33
2023-04-04T02:35:32.897Z,68.04
2023-04-04T02:38:00.909Z,68.32
2023-04-04T02:40:40.024Z,67.62
2023-04-04T02:43:09.739Z,67.88
2023-04-04T02:45:38.673Z,67.68
2023-04-04T02:48:27.518Z,67.38
2023-04-04T02:50:59.701Z,67.88
2023-04-04T02:53:27.887Z,66.80
2023-04-04T02:55:59.718Z,67.71
2023-04-04T02:58:29.115Z,66.93
2023-04-04T03:00:57.350Z,66.92
2023-04-04T03:03:30.339Z,66.47
2023-04-04T03:06:00.831Z,66.86
2023-04-04T03:08:29.242Z,67.25
2023-04-04T03:10:59.846Z,66.94
2023-04-04T03:13:29.727Z,66.72
2023-04-04T03:16:04.620Z,67.38
2023-04-04T03:18:43.413Z,66.45
2023-04-04T03:21:12.334Z,67.39
2023-04-04T03:23:40.246Z,67.48
2023-04-04T03:26:08.168Z,67.33
2023-04-04T03:28:38.148Z,67.66
2023-04-04T03:31:06.619Z,68.09
2023-04-04T03:33:38.290Z,67.80
2023-04-04T03:36:11.989Z,67.61
2023-04-04T03:38:40.579Z,67.18
2023-04-04T03:41:10.123Z,67.60
2023-04-04T03:43:39.381Z,66.90
2023-04-04T03:46:08.071Z,66.76
2023-04-04T03:48:36.163Z,66.88
2023-04-04T03:51:07.827Z,66.83
2023-04-04T03:53:36.594Z,66.67
2023-04-04T03:56:04.978Z,67.33
2023-04-04T03:58:32.938Z,67.30
2023-04-04T04:01:02.253Z,66.50
2023-04-04T04:03:32.161Z,66.57
2023-04-04T04:06:00.834Z,67.16
2023-04-04T04:08:28.899Z,67.04
2023-04-04T04:10:57.658Z,66.40
2023-04-04T04:13:25.549Z,65.93
2023-04-04T04:15:55.935Z,65.41
2023-04-04T04:18:26.141Z,66.38
2023-04-04T04:20:59.560Z,66.44
2023-04-04T04:23:28.017Z,66.53
2023-04-04T04:25:56.057Z,66.83
2023-04-04T04:28:33.245Z,67.13
2023-04-04T04:31:07.810Z,67.11
2023-04-04T04:33:43.189Z,67.17
2023-04-04T04:36:11.712Z,67.33
2023-04-04T04:38:55.548Z,68.25
2023-04-04T04:41:23.795Z,68.14
2023-04-04T04:43:53.541Z,68.00
2023-04-04T04:46:24.796Z,67.30
2023-04-04T04:48:54.711Z,66.99
2023-04-04T04:51:27.883Z,67.37
2023-04-04T04:53:57.936Z,66.77
2023-04-04T04:56:27.536Z,66.68
2023-04-04T04:59:00.562Z,66.55
2023-04-04T05:01:29.323Z,66.30
2023-04-04T05:04:00.285Z,66.23
2023-04-04T05:06:38.199Z,66.06
2023-04-04T05:09:08.460Z,66.32
2023-04-04T05:11:38.788Z,66.08
2023-04-04T05:14:09.184Z,66.05
2023-04-04T05:16:45.120Z,65.98
2023-04-04T05:19:15.753Z,65.87
2023-04-04T05:21:49.084Z,65.79
2023-04-04T05:24:28.645Z,65.58
2023-04-04T05:26:57.575Z,65.25
2023-04-04T05:29:25.509Z,65.19
2023-04-04T05:31:54.263Z,65.51
2023-04-04T05:34:25.612Z,64.80
2023-04-04T05:36:54.093Z,64.42
2023-04-04T05:39:22.237Z,65.17
2023-04-04T05:42:01.510Z,64.61
2023-04-04T05:44:33.550Z,65.30
2023-04-04T05:47:01.501Z,65.13
2023-04-04T05:49:30.886Z,65.29
2023-04-04T05:52:01.273Z,65.26
2023-04-04T05:54:30.930Z,64.95
2023-04-04T05:57:02.191Z,65.67
2023-04-04T05:59:53.027Z,65.87
2023-04-04T06:02:21.392Z,65.85
2023-04-04T06:04:55.902Z,65.82
2023-04-04T06:07:31.962Z,65.99
2023-04-04T06:09:59.875Z,65.47
2023-04-04T06:12:27.791Z,65.96
2023-04-04T06:14:55.986Z,65.98
2023-04-04T06:17:25.353Z,66.37
2023-04-04T06:19:55.629Z,66.49
2023-04-04T06:22:24.364Z,66.36
2023-04-04T06:24:54.975Z,66.26
2023-04-04T06:27:24.376Z,66.83
2023-04-04T06:29:52.622Z,66.46
2023-04-04T06:32:23.035Z,66.09
2023-04-04T06:34:51.118Z,65.67
2023-04-04T06:37:29.678Z,65.59
2023-04-04T06:40:09.666Z,65.68
2023-04-04T06:42:37.973Z,65.08
2023-04-04T06:45:07.373Z,65.43
2023-04-04T06:47:36.000Z,64.60
2023-04-04T06:50:04.050Z,64.84
2023-04-04T06:52:33.452Z,65.24
2023-04-04T06:55:03.409Z,65.51
2023-04-04T06:57:32.029Z,65.14
2023-04-04T06:59:59.959Z,65.64
2023-04-04T07:02:28.054Z,65.17
2023-04-04T07:04:56.157Z,65.11
2023-04-04T07:07:24.650Z,64.75
2023-04-04T07:09:53.941Z,64.56
2023-04-04T07:12:21.887Z,64.18
2023-04-04T07:14:49.836Z,63.59
2023-04-04T07:17:24.592Z,64.00
2023-04-04T07:19:53.403Z,63.94
2023-04-04T07:22:21.562Z,64.08
2023-04-04T07:24:49.540Z,63.52
2023-04-04T07:27:18.839Z,63.92
2023-04-04T07:29:46.812Z,64.13
2023-04-04T07:32:14.764Z,63.11
2023-04-04T07:34:42.902Z,62.36
2023-04-04T07:37:10.779Z,62.63
2023-04-04T07:39:38.731Z,61.40
2023-04-04T07:42:06.964Z,62.17
2023-04-04T07:44:36.406Z,62.64
2023-04-04T07:47:09.998Z,61.85
2023-04-04T07:49:38.554Z,62.26
2023-04-04T07:52:06.568Z,62.05
2023-04-04T07:54:34.533Z,62.28
2023-04-04T07:57:05.501Z,61.69
2023-04-04T07:59:33.587Z,62.18
2023-04-04T08:02:02.864Z,63.22
2023-04-04T08:04:30.981Z,61.94
2023-04-04T08:06:58.970Z,62.10
2023-04-04T08:09:31.259Z,62.58
2023-04-04T08:11:59.292Z,62.46
2023-04-04T08:14:27.204Z,63.48
2023-04-04T08:16:55.147Z,63.63
2023-04-04T08:19:24.506Z,61.64
2023-04-04T08:21:52.629Z,61.21
2023-04-04T08:24:22.406Z,61.17
2023-04-04T08:26:58.276Z,61.57
2023-04-04T08:29:33.067Z,63.05
2023-04-04T08:32:01.727Z,63.42
2023-04-04T08:34:31.068Z,62.14
2023-04-04T08:36:59.992Z,62.56
2023-04-04T08:39:28.268Z,62.24
2023-04-04T08:42:02.746Z,61.51
2023-04-04T08:44:31.769Z,61.48
2023-04-04T08:47:01.232Z,61.81
2023-04-04T08:49:33.126Z,60.37
2023-04-04T08:52:02.782Z,61.32
2023-04-04T08:54:32.993Z,61.65
2023-04-04T08:57:01.764Z,60.23
2023-04-04T08:59:29.870Z,60.00
2023-04-04T09:02:05.615Z,60.22
2023-04-04T09:04:35.143Z,61.64
2023-04-04T09:07:05.282Z,61.94
2023-04-04T09:09:33.502Z,61.30
2023-04-04T09:12:02.469Z,61.18
2023-04-04T09:14:31.919Z,60.97
2023-04-04T09:17:00.104Z,59.77
2023-04-04T09:19:28.464Z,59.88
2023-04-04T09:21:57.988Z,60.52
2023-04-04T09:24:26.500Z,62.39
2023-04-04T09:26:57.210Z,60.96
2023-04-04T09:29:25.116Z,60.37
2023-04-04T09:31:53.130Z,60.04
2023-04-04T09:34:21.671Z,59.38
2023-04-04T09:36:49.712Z,60.58
2023-04-04T09:39:23.189Z,60.88
2023-04-04T09:41:51.343Z,60.48
2023-04-04T09:44:19.594Z,59.31
2023-04-04T09:46:52.206Z,59.46
2023-04-04T09:49:23.437Z,58.63
2023-04-04T09:51:54.886Z,58.63
2023-04-04T09:54:29.550Z,58.66
2023-04-04T09:56:57.993Z,58.89
2023-04-04T09:59:26.112Z,59.53
2023-04-04T10:01:55.951Z,60.11
2023-04-04T10:04:27.222Z,60.32
2023-04-04T10:06:55.949Z,59.93
2023-04-04T10:09:26.025Z,61.40
2023-04-04T10:12:09.595Z,58.97
2023-04-04T10:14:37.863Z,58.87
2023-04-04T10:17:10.436Z,58.30
2023-04-04T10:19:39.452Z,58.24
2023-04-04T10:22:07.413Z,57.38
2023-04-04T10:24:36.812Z,57.21
2023-04-04T10:27:04.850Z,56.99
2023-04-04T10:29:32.750Z,56.72
2023-04-04T10:32:06.685Z,57.82
2023-04-04T10:34:44.190Z,56.88
2023-04-04T10:37:16.717Z,57.59
2023-04-04T10:39:53.369Z,56.33
2023-04-04T10:42:21.752Z,57.28
2023-04-04T10:44:49.696Z,58.09
2023-04-04T10:47:22.007Z,57.11
2023-04-04T10:49:51.146Z,56.55
2023-04-04T10:52:21.183Z,56.23
2023-04-04T10:54:52.356Z,56.36
2023-04-04T10:57:21.333Z,56.54
2023-04-04T10:59:59.090Z,56.63
2023-04-04T11:02:45.558Z,56.81
2023-04-04T11:05:16.429Z,56.42
2023-04-04T11:07:57.268Z,56.56
2023-04-04T11:10:37.687Z,56.59
2023-04-04T11:13:14.009Z,56.55
2023-04-04T11:15:55.958Z,56.51
2023-04-04T11:18:45.683Z,57.40
2023-04-04T11:21:16.679Z,57.07
2023-04-04T11:24:14.716Z,56.57
2023-04-04T11:26:45.648Z,56.22
2023-04-04T11:29:25.062Z,55.87
2023-04-04T11:31:53.324Z,56.01
2023-04-04T11:34:34.101Z,55.64
2023-04-04T11:37:17.674Z,57.56
2023-04-04T11:39:56.597Z,58.03
2023-04-04T11:42:25.997Z,57.26
2023-04-04T11:45:04.846Z,56.43
2023-04-04T11:47:33.028Z,56.43
2023-04-04T11:50:02.443Z,57.38
2023-04-04T11:52:35.092Z,57.70
2023-04-04T11:55:03.252Z,56.91
2023-04-04T11:57:34.388Z,56.37
2023-04-04T12:00:06.164Z,56.05
2023-04-04T12:02:38.069Z,55.03
2023-04-04T12:05:07.196Z,55.71
2023-04-04T12:07:35.756Z,55.75
2023-04-04T12:10:04.325Z,55.51
2023-04-04T12:12:38.073Z,54.80
2023-04-04T12:15:16.903Z,55.75
2023-04-04T12:17:49.138Z,54.85
2023-04-04T12:20:17.920Z,54.54
2023-04-04T12:22:50.720Z,54.55
2023-04-04T12:25:20.998Z,54.50
2023-04-04T12:27:51.691Z,55.33
2023-04-04T12:30:20.367Z,54.92
2023-04-04T12:32:50.143Z,53.57
2023-04-04T12:35:18.764Z,54.18
2023-04-04T12:37:59.278Z,52.73
2023-04-04T12:40:31.345Z,52.68
2023-04-04T12:43:00.996Z,51.66
2023-04-04T12:45:29.763Z,53.99
2023-04-04T12:47:58.605Z,54.64
2023-04-04T12:50:28.534Z,53.56
2023-04-04T12:53:13.369Z,52.67
2023-04-04T12:55:47.773Z,53.05
2023-04-04T12:58:18.788Z,52.93
2023-04-04T13:00:47.032Z,52.77
2023-04-04T13:03:16.349Z,51.87
2023-04-04T13:05:45.189Z,51.57
2023-04-04T13:08:13.241Z,52.68
2023-04-04T13:11:08.095Z,50.65
2023-04-04T13:13:40.190Z,51.50
2023-04-04T13:16:09.797Z,52.13
2023-04-04T13:18:39.278Z,52.09
2023-04-04T13:21:08.580Z,50.62
2023-04-04T13:23:39.318Z,50.84
2023-04-04T13:26:09.734Z,51.81
2023-04-04T13:28:39.103Z,49.64
2023-04-04T13:31:08.426Z,49.62
2023-04-04T13:33:36.730Z,50.08
2023-04-04T13:36:05.137Z,50.48
2023-04-04T13:38:33.682Z,49.58
2023-04-04T13:41:02.017Z,49.73
2023-04-04T13:43:29.926Z,49.74
2023-04-04T13:45:59.235Z,48.59
2023-04-04T13:48:27.699Z,48.80
2023-04-04T13:50:55.933Z,48.43
2023-04-04T13:53:23.848Z,49.58
2023-04-04T13:56:16.186Z,47.84
2023-04-04T13:58:40.565Z,48.59
2023-04-04T14:01:10.042Z,47.42
2023-04-04T14:03:38.334Z,47.02
2023-04-04T14:06:10.746Z,47.75
2023-04-04T14:08:39.841Z,46.71
2023-04-04T14:11:08.221Z,48.24
2023-04-04T14:13:36.447Z,48.50
2023-04-04T14:16:04.760Z,47.26
2023-04-04T14:18:34.553Z,46.77
2023-04-04T14:21:03.033Z,45.97
2023-04-04T14:23:31.617Z,46.69
2023-04-04T14:25:59.603Z,47.00
2023-04-04T14:28:28.045Z,45.59
2023-04-04T14:30:56.296Z,45.56
2023-04-04T14:33:24.210Z,44.87
2023-04-04T14:35:53.504Z,45.60
2023-04-04T14:38:21.413Z,45.04
2023-04-04T14:40:49.585Z,44.31
2023-04-04T14:43:17.460Z,45.15
2023-04-04T14:45:45.349Z,44.63
2023-04-04T14:48:13.261Z,43.78
2023-04-04T14:50:42.845Z,43.17
2023-04-04T14:53:12.293Z,42.90
2023-04-04T14:55:40.454Z,42.34
2023-04-04T14:58:08.596Z,42.95
2023-04-04T15:00:36.542Z,44.27
2023-04-04T15:03:07.229Z,42.56
2023-04-04T15:05:35.451Z,42.57
2023-04-04T15:08:03.445Z,42.65
2023-04-04T15:10:32.867Z,42.24
2023-04-04T15:13:00.862Z,42.60
2023-04-04T15:15:30.054Z,43.15
2023-04-04T15:17:58.301Z,41.96
2023-04-04T15:20:26.275Z,41.78
2023-04-04T15:22:54.520Z,41.89
2023-04-04T15:25:22.531Z,41.69
2023-04-04T15:27:51.854Z,41.74
2023-04-04T15:30:19.891Z,42.50
2023-04-04T15:32:48.004Z,42.77
2023-04-04T15:35:20.713Z,40.66
2023-04-04T15:37:49.184Z,41.31
2023-04-04T15:40:17.678Z,41.09
2023-04-04T15:42:46.724Z,40.39
2023-04-04T15:45:16.394Z,40.98
2023-04-04T15:47:45.146Z,40.49
2023-04-04T15:50:13.475Z,40.34
2023-04-04T15:52:41.818Z,40.34
2023-04-04T15:55:12.948Z,40.95
2023-04-04T15:57:42.724Z,39.66
2023-04-04T16:00:11.988Z,39.88
2023-04-04T16:02:41.590Z,39.57
2023-04-04T16:05:09.907Z,39.71
2023-04-04T16:07:37.920Z,39.66
2023-04-04T16:10:06.956Z,40.18
2023-04-04T16:12:34.903Z,40.86
2023-04-04T16:15:03.142Z,40.43
2023-04-04T16:17:33.221Z,39.29
2023-04-04T16:20:02.783Z,39.50
2023-04-04T16:22:30.765Z,39.20
2023-04-04T16:24:58.697Z,39.20
2023-04-04T16:27:27.181Z,39.37
2023-04-04T16:29:55.542Z,39.82
2023-04-04T16:32:23.498Z,40.06
2023-04-04T16:34:51.423Z,39.40
2023-04-04T16:37:20.725Z,38.83
2023-04-04T16:39:49.122Z,39.23
2023-04-04T16:42:19.538Z,38.61
2023-04-04T16:44:47.932Z,38.05
2023-04-04T16:47:15.927Z,38.93
2023-04-04T16:49:43.838Z,39.73
2023-04-04T16:52:11.806Z,38.52
2023-04-04T16:54:41.336Z,37.51
2023-04-04T16:57:09.351Z,39.71
2023-04-04T16:59:37.803Z,39.34
2023-04-04T17:02:07.915Z,38.62
2023-04-04T17:04:36.996Z,38.84
2023-04-04T17:07:06.176Z,39.13
2023-04-04T17:09:35.709Z,38.66
2023-04-04T17:12:05.449Z,38.86
2023-04-04T17:14:33.469Z,38.77
2023-04-04T17:17:01.442Z,38.65
2023-04-04T17:19:30.377Z,39.19
2023-04-04T17:21:58.601Z,39.00
2023-04-04T17:24:27.411Z,39.33
2023-04-04T17:26:57.857Z,39.55
2023-04-04T17:29:27.692Z,39.49
2023-04-04T17:31:56.199Z,39.63
2023-04-04T17:34:24.690Z,38.77
2023-04-04T17:36:52.842Z,39.11
2023-04-04T17:39:20.861Z,39.19
2023-04-04T17:41:48.857Z,39.11
2023-04-04T17:44:17.083Z,40.13
2023-04-04T17:46:46.681Z,39.93
2023-04-04T17:49:19.462Z,40.53
2023-04-04T17:51:48.680Z,39.70
2023-04-04T17:54:17.498Z,40.02
2023-04-04T17:56:46.944Z,40.06
2023-04-04T17:59:15.869Z,39.80
2023-04-04T18:01:44.334Z,39.79
2023-04-04T18:04:13.805Z,41.27
2023-04-04T18:06:42.089Z,40.76
2023-04-04T18:09:10.531Z,41.65
2023-04-04T18:11:40.036Z,41.31
2023-04-04T18:14:08.761Z,40.91
2023-04-04T18:16:40.377Z,41.39
2023-04-04T18:19:09.497Z,41.73
2023-04-04T18:21:39.092Z,42.47
2023-04-04T18:24:11.105Z,41.35
2023-04-04T18:26:39.356Z,41.68
2023-04-04T18:29:07.638Z,42.88
2023-04-04T18:31:36.016Z,42.63
2023-04-04T18:34:04.058Z,42.15
2023-04-04T18:36:32.402Z,42.75
2023-04-04T18:39:02.024Z,42.74
2023-04-04T18:41:30.116Z,43.80
2023-04-04T18:43:58.086Z,44.24
2023-04-04T18:46:26.007Z,43.72
2023-04-04T18:48:54.086Z,43.97
2023-04-04T18:51:23.571Z,44.18
2023-04-04T18:53:52.029Z,44.21
2023-04-04T18:56:21.586Z,43.90
2023-04-04T18:58:49.772Z,44.88
2023-04-04T19:01:17.879Z,44.69
2023-04-04T19:03:48.274Z,44.95
2023-04-04T19:06:16.730Z,43.96
2023-04-04T19:08:45.629Z,44.18
2023-04-04T19:11:14.076Z,45.33
2023-04-04T19:13:43.426Z,45.46
2023-04-04T19:16:11.461Z,45.56
2023-04-04T19:18:39.366Z,45.52
2023-04-04T19:21:08.847Z,45.61
2023-04-04T19:23:38.193Z,45.13
2023-04-04T19:26:07.511Z,45.16
2023-04-04T19:28:35.659Z,46.02
2023-04-04T19:31:10.703Z,46.33
2023-04-04T19:33:39.165Z,46.27
2023-04-04T19:36:09.666Z,46.30
2023-04-04T19:38:39.204Z,46.91
2023-04-04T19:41:12.873Z,46.82
2023-04-04T19:43:43.140Z,46.86
2023-04-04T19:46:14.375Z,47.08
2023-04-04T19:48:45.090Z,47.22
2023-04-04T19:51:51.898Z,47.09
2023-04-04T19:54:26.530Z,47.87
2023-04-04T19:56:59.575Z,47.92
2023-04-04T19:59:58.774Z,47.46
2023-04-04T20:02:50.452Z,47.75
2023-04-04T20:06:03.514Z,47.64
2023-04-04T20:08:38.918Z,47.21
2023-04-04T20:11:07.884Z,46.98
2023-04-04T20:13:37.389Z,47.03
2023-04-04T20:16:07.806Z,47.57
2023-04-04T20:18:37.946Z,47.78
2023-04-04T20:21:12.338Z,48.12
2023-04-04T20:23:48.084Z,47.94
2023-04-04T20:26:55.523Z,48.16
2023-04-04T20:29:26.039Z,48.21
2023-04-04T20:31:55.864Z,47.80
2023-04-04T20:34:45.695Z,47.96
2023-04-04T20:37:16.121Z,48.20
2023-04-04T20:39:50.553Z,48.48
2023-04-04T20:42:35.312Z,48.66
2023-04-04T20:45:37.986Z,47.93
2023-04-04T20:48:07.872Z,48.49
2023-04-04T20:50:47.337Z,47.98
2023-04-04T20:53:20.279Z,47.71
2023-04-04T20:55:50.746Z,48.08
2023-04-04T20:58:27.277Z,48.54
2023-04-04T21:00:56.815Z,48.02
2023-04-04T21:03:31.563Z,48.01
2023-04-04T21:06:04.160Z,48.63
2023-04-04T21:08:42.332Z,47.93
2023-04-04T21:11:12.458Z,48.34
2023-04-04T21:13:42.414Z,48.28
2023-04-04T21:16:12.036Z,48.74
2023-04-04T21:18:41.655Z,49.14
2023-04-04T21:21:12.127Z,48.67
2023-04-04T21:23:48.406Z,49.67
2023-04-04T21:26:33.127Z,48.87
2023-04-04T21:29:02.461Z,48.88
2023-04-04T21:31:36.426Z,48.91
2023-04-04T21:34:15.675Z,49.07
2023-04-04T21:36:44.419Z,49.59
2023-04-04T21:39:13.978Z,49.32
2023-04-04T21:41:44.787Z,49.28
2023-04-04T21:44:12.669Z,49.16
2023-04-04T21:46:42.058Z,49.48
2023-04-04T21:49:11.200Z,49.42
2023-04-04T21:51:39.194Z,50.40
2023-04-04T21:54:07.432Z,49.76
2023-04-04T21:56:35.617Z,50.68
2023-04-04T21:59:08.171Z,50.14
2023-04-04T22:01:37.010Z,50.84
2023-04-04T22:04:04.992Z,50.92
2023-04-04T22:06:32.921Z,50.69
2023-04-04T22:09:01.700Z,49.97
2023-04-04T22:11:30.382Z,49.98
2023-04-04T22:14:04.494Z,50.80
2023-04-04T22:16:37.086Z,51.37
2023-04-04T22:19:05.640Z,50.99
2023-04-04T22:21:36.863Z,49.98
2023-04-04T22:24:06.422Z,50.86
2023-04-04T22:26:34.626Z,51.39
2023-04-04T22:29:05.374Z,50.79
2023-04-04T22:31:35.256Z,50.77
2023-04-04T22:34:04.075Z,51.02
2023-04-04T22:36:34.489Z,50.30
2023-04-04T22:39:02.933Z,51.10
2023-04-04T22:41:31.302Z,49.87
2023-04-04T22:43:59.419Z,51.11
2023-04-04T22:46:29.294Z,50.64
2023-04-04T22:49:06.633Z,50.93
2023-04-04T22:51:43.297Z,51.01
2023-04-04T22:54:13.050Z,51.19
2023-04-04T22:56:41.814Z,50.81
2023-04-04T22:59:09.933Z,50.28
2023-04-04T23:01:38.070Z,50.35
2023-04-04T23:04:07.776Z,50.17
2023-04-04T23:06:36.341Z,51.21
2023-04-04T23:09:04.388Z,50.53
2023-04-04T23:11:32.372Z,50.55
2023-04-04T23:14:00.550Z,50.69
2023-04-04T23:16:28.971Z,51.38
2023-04-04T23:18:57.281Z,51.21
2023-04-04T23:21:26.630Z,51.81
2023-04-04T23:23:54.556Z,51.15
2023-04-04T23:26:22.461Z,51.23
2023-04-04T23:28:51.688Z,51.38
2023-04-04T23:31:20.467Z,52.34
2023-04-04T23:33:48.433Z,52.10
2023-04-04T23:36:16.533Z,51.54
2023-04-04T23:38:46.167Z,51.95
2023-04-04T23:41:14.270Z,51.70
2023-04-04T23:43:43.251Z,51.83
2023-04-04T23:46:14.603Z,52.96
2023-04-04T23:48:42.657Z,52.35
2023-04-04T23:51:11.002Z,52.08
2023-04-04T23:53:39.097Z,51.87
2023-04-04T23:56:09.038Z,53.09
2023-04-04T23:58:38.285Z,52.77
